Flight Track Log - Related Links

Times and Time Zones

All times are in EDT time to prevent confusion due to time zone crossing. See the CSC8954 flight status page for this flight to view local times or setup timezone preferences in your user account.


Time Position Orientation Groundspeed Altitude Reporting Facility
EDT Latitude Longitude Course Direction KTS MPH feet Rate Location/Type
Tue 04:41:00 AM 43.7150 88.3945 106° East  Level Estimated
Tue 04:42:00 AM 43.6822 88.5472 106° East  Level Estimated
Tue 04:43:00 AM 43.6493 88.6999 107° East  Level Estimated
Tue 04:44:00 AM 43.6161 88.8523 107° East  Level Estimated
Tue 04:45:00 AM 43.5828 89.0046 107° East  Level Estimated
Tue 04:46:00 AM 43.5493 89.1567 107° East  Level Estimated
Tue 04:47:00 AM 43.5155 89.3087 107° East  Level Estimated
Tue 04:48:00 AM 43.4816 89.4605 107° East  Level Estimated
Tue 04:49:00 AM 43.4474 89.6121 107° East  Level Estimated
Tue 04:50:00 AM 43.4131 89.7635 107° East  Level Estimated
Tue 04:51:00 AM 43.3785 89.9148 107° East  Level Estimated
Tue 04:52:00 AM 43.3438 90.0659 108° East  Level Estimated
Tue 04:53:00 AM 43.3088 90.2168 108° East  Level Estimated
Tue 04:54:00 AM 43.2737 90.3675 108° East  Level Estimated
Tue 04:55:00 AM 43.2383 90.5181 108° East  Level Estimated
Tue 04:56:00 AM 43.2028 90.6685 108° East  Level Estimated
Tue 04:57:00 AM 43.1670 90.8187 108° East  Level Estimated
Tue 04:58:00 AM 43.1311 90.9687 108° East  Level Estimated
Tue 04:59:00 AM 43.0950 91.1186 108° East  Level Estimated
Tue 05:00:00 AM 43.0587 91.2683 108° East  Level Estimated
Tue 05:01:00 AM 43.0221 91.4178 108° East  Level Estimated
Tue 05:02:00 AM 42.9854 91.5671 109° East  Level Estimated
Tue 05:03:00 AM 42.9485 91.7163 109° East  Level Estimated
Tue 05:04:00 AM 42.9114 91.8653 109° East  Level Estimated
Tue 05:05:00 AM 42.8741 92.0141 109° East  Level Estimated
Tue 05:06:00 AM 42.8366 92.1627 109° East  Level Estimated
Tue 05:07:00 AM 42.7989 92.3111 109° East  Level Estimated
Tue 05:08:00 AM 42.7611 92.4594 109° East  Level Estimated
Tue 05:09:00 AM 42.7230 92.6074 109° East  Level Estimated
Tue 05:10:00 AM 42.6847 92.7553 109° East  Level Estimated
Tue 05:11:00 AM 42.6463 92.9030 109° East  Level Estimated
Tue 05:12:00 AM 42.6077 93.0506 110° East  Level Estimated
Tue 05:13:00 AM 42.5689 93.1979 110° East  Level Estimated
Tue 05:14:00 AM 42.5299 93.3450 110° East  Level Estimated
Tue 05:15:00 AM 42.4907 93.4920 110° East  Level Estimated
Tue 05:16:00 AM 42.4513 93.6388 110° East  Level Estimated
Tue 05:17:00 AM 42.4117 93.7854 110° East  Level Estimated
Tue 05:18:00 AM 42.3719 93.9318 110° East  Level Estimated
Tue 05:19:00 AM 42.3320 94.0781 110° East  Level Estimated
Tue 05:20:00 AM 42.2919 94.2241 110° East  Level Estimated
Tue 05:21:00 AM 42.2515 94.3700 110° East  Level Estimated
Tue 05:22:00 AM 42.2110 94.5156 111° Southeast  Level Estimated
Tue 05:23:00 AM 42.1704 94.6611 111° Southeast  Level Estimated
Tue 05:24:00 AM 42.1295 94.8064 111° Southeast  Level Estimated
Tue 05:25:00 AM 42.0884 94.9515 111° Southeast  Level Estimated
Tue 05:26:00 AM 42.0472 95.0965 111° Southeast  Level Estimated
Tue 05:27:00 AM 42.0058 95.2412 111° Southeast  Level Estimated
Tue 05:28:00 AM 41.9642 95.3857 111° Southeast  Level Estimated
Tue 05:29:00 AM 41.9224 95.5301 111° Southeast  Level Estimated
Tue 05:30:00 AM 41.8805 95.6742 111° Southeast  Level Estimated
Tue 05:31:00 AM 41.8383 95.8182 111° Southeast  Level Estimated
Tue 05:32:00 AM 41.7960 95.9620 112° Southeast  Level Estimated
Tue 05:33:00 AM 41.7535 96.1056 112° Southeast  Level Estimated
Tue 05:34:00 AM 41.7108 96.2490 112° Southeast  Level Estimated
Tue 05:35:00 AM 41.6680 96.3922 112° Southeast  Level Estimated
Tue 05:36:00 AM 41.6249 96.5353 112° Southeast  Level Estimated
Tue 05:37:00 AM 41.5817 96.6781 112° Southeast  Level Estimated
Tue 05:38:00 AM 41.5383 96.8207 112° Southeast  Level Estimated
Tue 05:39:00 AM 41.4948 96.9632 112° Southeast  Level Estimated
Tue 05:40:00 AM 41.4510 97.1055 112° Southeast  Level Estimated
Tue 05:41:00 AM 41.4071 97.2475 112° Southeast  Level Estimated
Tue 05:42:00 AM 41.3631 97.3894 112° Southeast  Level Estimated
Tue 05:43:00 AM 41.3188 97.5311 113° Southeast  Level Estimated
Tue 05:44:00 AM 41.2744 97.6726 113° Southeast  Level Estimated
Tue 05:45:00 AM 41.2298 97.8139 113° Southeast  Level Estimated
Tue 05:46:00 AM 41.1850 97.9550 113° Southeast  Level Estimated
Tue 05:47:00 AM 41.1400 98.0959 113° Southeast  Level Estimated
Tue 05:48:00 AM 41.0949 98.2366 113° Southeast  Level Estimated
Tue 05:49:00 AM 41.0496 98.3771 113° Southeast  Level Estimated
Tue 05:50:00 AM 41.0042 98.5174 113° Southeast  Level Estimated
Tue 05:51:00 AM 40.9585 98.6576 113° Southeast  Level Estimated
Tue 05:52:00 AM 40.9127 98.7975 113° Southeast  Level Estimated
Tue 05:53:00 AM 40.8667 98.9373 113° Southeast  Level Estimated
Tue 05:54:00 AM 40.8206 99.0768 114° Southeast  Level Estimated
Tue 05:55:00 AM 40.7743 99.2162 114° Southeast  Level Estimated
Tue 05:56:00 AM 40.7278 99.3553 114° Southeast  Level Estimated
Tue 05:57:00 AM 40.6812 99.4943 114° Southeast  Level Estimated
Tue 05:58:00 AM 40.6344 99.6331 114° Southeast  Level Estimated
Tue 05:59:00 AM 40.5874 99.7717 114° Southeast  Level Estimated
Tue 06:00:00 AM 40.5402 99.9100 114° Southeast  Level Estimated
Tue 06:01:00 AM 40.4929 100.0482 114° Southeast  Level Estimated
Tue 06:02:00 AM 40.4455 100.1862 114° Southeast  Level Estimated
Tue 06:03:00 AM 40.3978 100.3240 114° Southeast  Level Estimated
Tue 06:04:00 AM 40.3500 100.4616 114° Southeast  Level Estimated
Tue 06:05:00 AM 40.3021 100.5991 115° Southeast  Level Estimated
Tue 06:06:00 AM 40.2540 100.7363 115° Southeast  Level Estimated
Tue 06:07:00 AM 40.2057 100.8733 115° Southeast  Level Estimated
Tue 06:08:00 AM 40.1572 101.0101 115° Southeast  Level Estimated
Tue 06:09:00 AM 40.1086 101.1467 115° Southeast  Level Estimated
Tue 06:10:00 AM 40.0599 101.2832 115° Southeast  Level Estimated
Tue 06:11:00 AM 40.0109 101.4194 115° Southeast  Level Estimated
Tue 06:12:00 AM 39.9618 101.5555 115° Southeast  Level Estimated
Tue 06:13:00 AM 39.9126 101.6913 115° Southeast  Level Estimated
Tue 06:14:00 AM 39.8632 101.8270 115° Southeast  Level Estimated
Tue 06:15:00 AM 39.8136 101.9624 115° Southeast  Level Estimated
Tue 06:16:00 AM 39.7639 102.0977 116° Southeast  Level Estimated
Tue 06:17:00 AM 39.7141 102.2327 116° Southeast  Level Estimated
Tue 06:18:00 AM 39.6640 102.3676 116° Southeast  Level Estimated
Tue 06:19:00 AM 39.6138 102.5023 116° Southeast  Level Estimated
Tue 06:20:00 AM 39.5635 102.6367 116° Southeast  Level Estimated
Tue 06:21:00 AM 39.5130 102.7710 116° Southeast  Level Estimated
Tue 06:22:00 AM 39.4623 102.9051 116° Southeast  Level Estimated
Tue 06:23:00 AM 39.4115 103.0390 116° Southeast  Level Estimated
Tue 06:24:00 AM 39.3606 103.1727 116° Southeast  Level Estimated
Tue 06:25:00 AM 39.3095 103.3062 116° Southeast  Level Estimated
Tue 06:26:00 AM 39.2582 103.4395 116° Southeast  Level Estimated
Tue 06:27:00 AM 39.2068 103.5726 116° Southeast  Level Estimated
Tue 06:28:00 AM 39.1552 103.7056 117° Southeast  Level Estimated
Tue 06:29:00 AM 39.1035 103.8383 117° Southeast  Level Estimated
Tue 06:30:00 AM 39.0516 103.9708 117° Southeast  Level Estimated
Tue 06:31:00 AM 38.9996 104.1031 117° Southeast  Level Estimated
Tue 06:32:00 AM 38.9475 104.2353 117° Southeast  Level Estimated
Tue 06:33:00 AM 38.8951 104.3672 117° Southeast  Level Estimated
Tue 06:34:00 AM 38.8427 104.4990 117° Southeast  Level Estimated
Tue 06:35:00 AM 38.7901 104.6305 117° Southeast  Level Estimated
Tue 06:36:00 AM 38.7373 104.7619 117° Southeast  Level Estimated
Tue 06:37:00 AM 38.6844 104.8930 117° Southeast  Level Estimated
Tue 06:38:00 AM 38.6314 105.0240 117° Southeast  Level Estimated
Tue 06:39:00 AM 38.5782 105.1548 117° Southeast  Level Estimated
Tue 06:40:00 AM 38.5248 105.2854 118° Southeast  Level Estimated
Tue 06:41:00 AM 38.4713 105.4157 118° Southeast  Level Estimated
Tue 06:42:00 AM 38.4177 105.5460 118° Southeast  Level Estimated
Tue 06:43:00 AM 38.3639 105.6759 118° Southeast  Level Estimated
Tue 06:44:00 AM 38.3100 105.8058 118° Southeast  Level Estimated
Tue 06:45:00 AM 38.2560 105.9354 118° Southeast  Level Estimated
Tue 06:46:00 AM 38.2018 106.0648 118° Southeast  Level Estimated
Tue 06:47:00 AM 38.1474 106.1940 118° Southeast  Level Estimated
Tue 06:48:00 AM 38.0929 106.3231 118° Southeast  Level Estimated
Tue 06:49:00 AM 38.0383 106.4519 118° Southeast  Level Estimated
Tue 06:50:00 AM 37.9835 106.5806 118° Southeast  Level Estimated
Tue 06:51:00 AM 37.9286 106.7090 118° Southeast  Level Estimated
Tue 06:52:00 AM 37.8736 106.8373 119° Southeast  Level Estimated
Tue 06:53:00 AM 37.8184 106.9654 119° Southeast  Level Estimated
Tue 06:54:00 AM 37.7631 107.0933 119° Southeast  Level Estimated
Tue 06:55:00 AM 37.7076 107.2209 119° Southeast  Level Estimated
Tue 06:56:00 AM 37.6520 107.3485 119° Southeast  Level Estimated
Tue 06:57:00 AM 37.5962 107.4758 119° Southeast  Level Estimated
Tue 06:58:00 AM 37.5404 107.6029 119° Southeast  Level Estimated
Tue 06:59:00 AM 37.4844 107.7298 119° Southeast  Level Estimated
Tue 07:00:00 AM 37.4282 107.8566 119° Southeast  Level Estimated
Tue 07:01:00 AM 37.3719 107.9831 119° Southeast  Level Estimated
Tue 07:02:00 AM 37.3155 108.1095 119° Southeast  Level Estimated
Tue 07:03:00 AM 37.2590 108.2356 119° Southeast  Level Estimated
Tue 07:04:00 AM 37.2023 108.3616 119° Southeast  Level Estimated
Tue 07:05:00 AM 37.1455 108.4874 120° Southeast  Level Estimated
Tue 07:06:00 AM 37.0885 108.6130 120° Southeast  Level Estimated
Tue 07:07:00 AM 37.0314 108.7384 120° Southeast  Level Estimated
Tue 07:08:00 AM 36.9742 108.8636 120° Southeast  Level Estimated
Tue 07:09:00 AM 36.9169 108.9887 120° Southeast  Level Estimated
Tue 07:10:00 AM 36.8594 109.1135 120° Southeast  Level Estimated
Tue 07:11:00 AM 36.8018 109.2382 120° Southeast  Level Estimated
Tue 07:12:00 AM 36.7441 109.3627 120° Southeast  Level Estimated
Tue 07:13:00 AM 36.6862 109.4870 120° Southeast  Level Estimated
Tue 07:14:00 AM 36.6282 109.6111 120° Southeast  Level Estimated
Tue 07:15:00 AM 36.5701 109.7350 120° Southeast  Level Estimated
Tue 07:16:00 AM 36.5118 109.8587 120° Southeast  Level Estimated
Tue 07:17:00 AM 36.4535 109.9822 120° Southeast  Level Estimated
Tue 07:18:00 AM 36.3950 110.1056 120° Southeast  Level Estimated
Tue 07:19:00 AM 36.3363 110.2288 121° Southeast  Level Estimated
Tue 07:20:00 AM 36.2776 110.3517 121° Southeast  Level Estimated
Tue 07:21:00 AM 36.2187 110.4745 121° Southeast  Level Estimated
Tue 07:22:00 AM 36.1597 110.5971 121° Southeast  Level Estimated
Tue 07:23:00 AM 36.1006 110.7196 121° Southeast  Level Estimated
Tue 07:24:00 AM 36.0413 110.8418 121° Southeast  Level Estimated
Tue 07:25:00 AM 35.9819 110.9639 121° Southeast  Level Estimated
Tue 07:26:00 AM 35.9224 111.0857 121° Southeast  Level Estimated
Tue 07:27:00 AM 35.8628 111.2074 121° Southeast  Level Estimated
Tue 07:28:00 AM 35.8030 111.3289 121° Southeast  Level Estimated
Tue 07:29:00 AM 35.7431 111.4503 121° Southeast  Level Estimated
Tue 07:30:00 AM 35.6832 111.5714 121° Southeast  Level Estimated
Tue 07:31:00 AM 35.6230 111.6924 121° Southeast  Level Estimated
Tue 07:32:00 AM 35.5628 111.8131 121° Southeast  Level Estimated
Tue 07:33:00 AM 35.5024 111.9337 122° Southeast  Level Estimated
Tue 07:34:00 AM 35.4420 112.0542 122° Southeast  Level Estimated
Tue 07:35:00 AM 35.3814 112.1744 122° Southeast  Level Estimated
Tue 07:36:00 AM 35.3207 112.2944 122° Southeast  Level Estimated
Tue 07:37:00 AM 35.2598 112.4143 122° Southeast  Level Estimated
Tue 07:38:00 AM 35.1989 112.5340 122° Southeast  Level Estimated
Tue 07:39:00 AM 35.1378 112.6535 122° Southeast  Level Estimated
Tue 07:40:00 AM 35.0766 112.7729 122° Southeast  Level Estimated
Tue 07:41:00 AM 35.0153 112.8920 122° Southeast  Level Estimated
Tue 07:42:00 AM 34.9539 113.0110 122° Southeast  Level Estimated
Tue 07:43:00 AM 34.8924 113.1298 122° Southeast  Level Estimated
Tue 07:44:00 AM 34.8307 113.2484 122° Southeast  Level Estimated
Tue 07:45:00 AM 34.7690 113.3669 122° Southeast  Level Estimated
Tue 07:46:00 AM 34.7071 113.4851 122° Southeast  Level Estimated
Tue 07:47:00 AM 34.6451 113.6032 123° Southeast  Level Estimated
Tue 07:48:00 AM 34.5830 113.7211 123° Southeast  Level Estimated
Tue 07:49:00 AM 34.5207 113.8389 123° Southeast  Level Estimated
Tue 07:50:00 AM 34.5197 113.8409 123° Southeast  Level Estimated
Tue 07:51:00 AM 34.5197 113.8409 North  Level Estimated
Tue 07:52:00 AM 34.5197 113.8409 North  Level Estimated
Tue 07:53:00 AM 34.5197 113.8409 North  Level Estimated
Tue 07:54:00 AM 34.5197 113.8409 North  Level Estimated
Tue 07:55:00 AM 34.5197 113.8409 North  Level Estimated
Tue 07:56:00 AM 34.5197 113.8409 North  Level Estimated
Tue 07:57:00 AM 34.5197 113.8409 North  Level Estimated
Tue 07:58:00 AM 34.5197 113.8409 North  Level Estimated
Tue 07:59:00 AM 34.5197 113.8409 North  Level Estimated
Tue 08:00:00 AM 34.5197 113.8409 North  Level Estimated
Tue 08:01:00 AM 34.5197 113.8409 North  Level Estimated
Tue 08:02:00 AM 34.5197 113.8409 North  Level Estimated

Login

Don't have an account? Register now (free) for customized features, flight alerts, and more!